createdAt,value
2022-12-12T00:01:29.152Z,27.77
2022-12-12T00:03:56.642Z,26.90
2022-12-12T00:06:25.042Z,29.20
2022-12-12T00:08:53.288Z,27.80
2022-12-12T00:11:24.133Z,27.07
2022-12-12T00:13:54.652Z,28.27
2022-12-12T00:16:26.156Z,28.77
2022-12-12T00:18:53.969Z,27.40
2022-12-12T00:21:24.532Z,28.77
2022-12-12T00:23:51.964Z,28.70
2022-12-12T00:26:21.868Z,26.13
2022-12-12T00:28:49.332Z,28.53
2022-12-12T00:31:24.425Z,27.17
2022-12-12T00:33:51.814Z,28.47
2022-12-12T00:36:20.970Z,27.43
2022-12-12T00:38:51.656Z,28.57
2022-12-12T00:41:19.699Z,30.53
2022-12-12T00:43:47.228Z,31.17
2022-12-12T00:46:15.465Z,30.17
2022-12-12T00:48:44.643Z,31.37
2022-12-12T00:51:18.982Z,30.80
2022-12-12T00:53:46.789Z,31.73
2022-12-12T00:56:15.610Z,32.40
2022-12-12T00:58:43.315Z,31.87
2022-12-12T01:01:11.461Z,33.73
2022-12-12T01:03:40.650Z,32.00
2022-12-12T01:06:10.346Z,31.77
2022-12-12T01:08:38.225Z,33.27
2022-12-12T01:11:05.960Z,31.67
2022-12-12T01:13:33.435Z,32.73
2022-12-12T01:16:00.565Z,32.13
2022-12-12T01:18:28.263Z,32.60
2022-12-12T01:20:55.480Z,31.50
2022-12-12T01:23:24.425Z,29.53
2022-12-12T01:26:00.017Z,28.80
2022-12-12T01:28:27.498Z,30.13
2022-12-12T01:30:54.885Z,30.47
2022-12-12T01:33:22.403Z,31.13
2022-12-12T01:35:49.949Z,29.70
2022-12-12T01:38:17.522Z,29.53
2022-12-12T01:40:45.925Z,29.73
2022-12-12T01:43:14.106Z,31.10
2022-12-12T01:46:29.592Z,30.70
2022-12-12T01:49:00.687Z,30.33
2022-12-12T01:51:30.926Z,30.77
2022-12-12T01:54:02.999Z,32.67
2022-12-12T01:56:32.696Z,33.43
2022-12-12T01:59:01.320Z,31.57
2022-12-12T02:01:28.674Z,33.03
2022-12-12T02:03:56.605Z,32.60
2022-12-12T02:06:27.548Z,32.97
2022-12-12T02:08:58.143Z,32.13
2022-12-12T02:11:27.575Z,32.47
2022-12-12T02:13:56.885Z,33.07
2022-12-12T02:16:38.329Z,32.73
2022-12-12T02:19:27.176Z,31.43
2022-12-12T02:22:01.021Z,31.17
2022-12-12T02:24:51.952Z,32.67
2022-12-12T02:27:35.984Z,32.93
2022-12-12T02:30:16.764Z,32.40
2022-12-12T02:33:07.559Z,32.57
2022-12-12T02:36:03.661Z,30.90
2022-12-12T02:38:38.618Z,32.43
2022-12-12T02:41:15.841Z,32.03
2022-12-12T02:43:51.956Z,32.90
2022-12-12T02:46:25.817Z,31.73
2022-12-12T02:49:02.457Z,30.67
2022-12-12T02:51:32.399Z,32.63
2022-12-12T02:53:59.935Z,32.73
2022-12-12T02:56:49.810Z,33.77
2022-12-12T02:59:25.871Z,32.90
2022-12-12T03:02:38.458Z,31.70
2022-12-12T03:05:45.242Z,33.10
2022-12-12T03:08:29.361Z,33.00
2022-12-12T03:10:58.844Z,34.13
2022-12-12T03:13:32.435Z,33.63
2022-12-12T03:16:09.968Z,35.20
2022-12-12T03:18:43.961Z,37.17
2022-12-12T03:21:19.877Z,36.23
2022-12-12T03:23:51.275Z,37.53
2022-12-12T03:26:25.492Z,36.13
2022-12-12T03:28:58.478Z,37.90
2022-12-12T03:31:31.948Z,37.20
2022-12-12T03:34:03.095Z,36.87
2022-12-12T03:36:36.041Z,35.93
2022-12-12T03:39:06.747Z,37.33
2022-12-12T03:41:39.961Z,37.13
2022-12-12T03:44:14.451Z,37.90
2022-12-12T03:46:46.513Z,37.23
2022-12-12T03:49:18.299Z,37.97
2022-12-12T03:51:53.551Z,37.57
2022-12-12T03:54:26.071Z,37.63
2022-12-12T03:56:57.110Z,36.17
2022-12-12T03:59:29.335Z,36.60
2022-12-12T04:02:01.987Z,38.77
2022-12-12T04:04:34.587Z,38.53
2022-12-12T04:07:11.932Z,37.60
2022-12-12T04:09:57.914Z,37.00
2022-12-12T04:12:52.728Z,35.90
2022-12-12T04:15:39.732Z,33.40
2022-12-12T04:18:16.258Z,35.80
2022-12-12T04:21:09.619Z,35.43
2022-12-12T04:23:51.617Z,35.37
2022-12-12T04:26:39.158Z,34.80
2022-12-12T04:29:14.896Z,34.67
2022-12-12T04:31:49.004Z,36.93
2022-12-12T04:34:22.394Z,37.40
2022-12-12T04:36:50.537Z,36.80
2022-12-12T04:39:21.275Z,38.23
2022-12-12T04:41:51.104Z,37.23
2022-12-12T04:44:21.655Z,37.10
2022-12-12T04:46:52.035Z,36.70
2022-12-12T04:49:24.037Z,39.40
2022-12-12T04:51:55.945Z,36.83
2022-12-12T04:54:30.836Z,36.27
2022-12-12T04:57:02.161Z,38.43
2022-12-12T04:59:30.289Z,36.30
2022-12-12T05:02:02.606Z,37.80
2022-12-12T05:04:36.590Z,35.17
2022-12-12T05:07:09.576Z,37.17
2022-12-12T05:09:38.340Z,37.43
2022-12-12T05:12:06.307Z,36.70
2022-12-12T05:14:33.382Z,37.00
2022-12-12T05:17:07.161Z,36.53
2022-12-12T05:19:34.262Z,36.17
2022-12-12T05:22:01.625Z,37.13
2022-12-12T05:24:36.541Z,39.87
2022-12-12T05:27:07.516Z,36.70
2022-12-12T05:29:34.801Z,37.77
2022-12-12T05:32:02.354Z,38.00
2022-12-12T05:35:01.567Z,37.63
2022-12-12T05:37:36.988Z,36.03
2022-12-12T05:40:06.235Z,36.53
2022-12-12T05:42:55.872Z,35.83
2022-12-12T05:45:41.574Z,35.50
2022-12-12T05:48:32.056Z,35.57
2022-12-12T05:51:06.988Z,34.73
2022-12-12T05:53:42.177Z,33.40
2022-12-12T05:56:24.347Z,33.60
2022-12-12T05:59:02.424Z,32.77
2022-12-12T06:01:31.832Z,33.70
2022-12-12T06:04:09.449Z,32.60
2022-12-12T06:06:56.031Z,34.13
2022-12-12T06:09:31.401Z,33.90
2022-12-12T06:11:58.839Z,35.03
2022-12-12T06:14:39.903Z,31.03
2022-12-12T06:17:28.312Z,33.53
2022-12-12T06:20:06.079Z,33.80
2022-12-12T06:22:41.490Z,35.03
2022-12-12T06:25:09.606Z,31.17
2022-12-12T06:27:37.089Z,33.13
2022-12-12T06:30:07.030Z,32.67
2022-12-12T06:32:37.296Z,33.60
2022-12-12T06:35:05.137Z,32.87
2022-12-12T06:37:40.095Z,32.50
2022-12-12T06:40:15.845Z,30.23
2022-12-12T06:42:49.885Z,32.50
2022-12-12T06:45:22.363Z,33.77
2022-12-12T06:47:58.108Z,33.10
2022-12-12T06:50:30.757Z,33.00
2022-12-12T06:53:14.302Z,32.83
2022-12-12T06:55:59.212Z,32.83
2022-12-12T06:58:53.074Z,34.77
2022-12-12T07:01:54.396Z,30.23
2022-12-12T07:04:39.494Z,32.87
2022-12-12T07:07:16.253Z,31.80
2022-12-12T07:10:21.179Z,33.27
2022-12-12T07:13:27.446Z,32.20
2022-12-12T07:15:58.265Z,34.23
2022-12-12T07:18:49.937Z,32.17
2022-12-12T07:21:27.820Z,33.67
2022-12-12T07:24:09.982Z,33.60
2022-12-12T07:26:42.996Z,33.27
2022-12-12T07:29:20.740Z,35.83
2022-12-12T07:32:19.091Z,33.50
2022-12-12T07:35:11.644Z,32.30
2022-12-12T07:37:54.798Z,30.93
2022-12-12T07:41:09.637Z,32.60
2022-12-12T07:43:45.272Z,31.27
2022-12-12T07:46:29.259Z,34.07
2022-12-12T07:49:05.294Z,32.00
2022-12-12T07:51:45.657Z,33.03
2022-12-12T07:54:32.769Z,33.70
2022-12-12T07:57:04.626Z,30.43
2022-12-12T08:02:30.234Z,31.87
2022-12-12T08:04:57.676Z,33.07
2022-12-12T08:07:26.557Z,32.77
2022-12-12T08:09:54.082Z,33.40
2022-12-12T08:12:21.444Z,33.50
2022-12-12T08:14:49.004Z,34.73
2022-12-12T08:17:16.064Z,34.23
2022-12-12T08:19:43.033Z,32.33
2022-12-12T08:22:13.072Z,31.83
2022-12-12T08:24:47.806Z,32.87
2022-12-12T08:27:17.208Z,33.73
2022-12-12T08:29:44.594Z,33.00
2022-12-12T08:32:15.379Z,33.80
2022-12-12T08:34:44.713Z,31.87
2022-12-12T08:37:14.450Z,32.80
2022-12-12T08:39:48.415Z,32.47
2022-12-12T08:42:21.208Z,31.07
2022-12-12T08:45:03.424Z,32.77
2022-12-12T08:47:33.899Z,32.90
2022-12-12T08:50:03.432Z,32.60
2022-12-12T08:52:36.432Z,32.03
2022-12-12T08:55:12.524Z,31.93
2022-12-12T08:57:46.287Z,30.33
2022-12-12T09:00:19.097Z,32.40
2022-12-12T09:02:46.839Z,33.10
2022-12-12T09:05:26.260Z,30.87
2022-12-12T09:07:55.365Z,30.00
2022-12-12T09:10:23.942Z,31.83
2022-12-12T09:12:52.054Z,31.37
2022-12-12T09:15:19.485Z,30.97
2022-12-12T09:17:46.819Z,31.13
2022-12-12T09:20:14.374Z,30.87
2022-12-12T09:22:41.640Z,31.53
2022-12-12T09:25:10.667Z,31.67
2022-12-12T09:27:40.320Z,30.90
2022-12-12T09:30:08.807Z,30.37
2022-12-12T09:32:36.272Z,33.90
2022-12-12T09:35:03.809Z,36.63
2022-12-12T09:37:31.601Z,30.90
2022-12-12T09:40:00.840Z,31.23
2022-12-12T09:42:32.363Z,30.17
2022-12-12T09:45:06.690Z,31.33
2022-12-12T09:47:39.030Z,30.63
2022-12-12T09:50:18.768Z,29.43
2022-12-12T09:52:48.378Z,30.93
2022-12-12T09:55:32.929Z,30.40
2022-12-12T09:58:06.002Z,31.37
2022-12-12T10:00:40.926Z,31.73
2022-12-12T10:03:32.547Z,30.13
2022-12-12T10:06:36.686Z,29.83
2022-12-12T10:09:22.293Z,29.60
2022-12-12T10:11:51.032Z,30.80
2022-12-12T10:14:24.107Z,32.07
2022-12-12T10:16:57.718Z,30.53
2022-12-12T10:19:31.409Z,29.63
2022-12-12T10:22:07.478Z,32.10
2022-12-12T10:24:40.238Z,30.70
2022-12-12T10:27:15.158Z,32.30
2022-12-12T10:29:46.598Z,30.10
2022-12-12T10:32:28.521Z,30.33
2022-12-12T10:35:14.952Z,31.10
2022-12-12T10:37:55.348Z,31.90
2022-12-12T10:40:36.468Z,29.73
2022-12-12T10:43:10.114Z,31.63
2022-12-12T10:46:07.528Z,30.20
2022-12-12T10:48:36.615Z,28.83
2022-12-12T10:51:07.098Z,31.07
2022-12-12T10:53:35.356Z,30.10
2022-12-12T10:56:08.741Z,30.80
2022-12-12T10:58:38.547Z,30.37
2022-12-12T11:01:12.934Z,30.33
2022-12-12T11:03:46.849Z,31.80
2022-12-12T11:06:18.018Z,27.77
2022-12-12T11:08:54.647Z,31.53
2022-12-12T11:11:25.577Z,28.70
2022-12-12T11:13:54.708Z,31.30
2022-12-12T11:16:24.853Z,29.33
2022-12-12T11:19:05.729Z,29.23
2022-12-12T11:21:35.532Z,31.20
2022-12-12T11:24:08.371Z,29.63
2022-12-12T11:26:44.462Z,29.80
2022-12-12T11:29:27.490Z,29.13
2022-12-12T11:32:02.268Z,29.37
2022-12-12T11:34:58.756Z,27.53
2022-12-12T11:37:48.251Z,27.87
2022-12-12T11:40:24.685Z,27.67
2022-12-12T11:43:26.443Z,27.40
2022-12-12T11:46:04.625Z,27.60
2022-12-12T11:48:43.555Z,26.53
2022-12-12T11:51:30.536Z,28.83
2022-12-12T11:54:08.793Z,27.73
2022-12-12T11:57:09.297Z,30.00
2022-12-12T12:00:16.089Z,25.47
2022-12-12T12:03:21.821Z,26.90
2022-12-12T12:06:10.260Z,26.37
2022-12-12T12:08:50.200Z,25.87
2022-12-12T12:11:25.174Z,25.97
2022-12-12T12:14:15.172Z,26.97
2022-12-12T12:17:10.176Z,27.10
2022-12-12T12:20:03.419Z,25.77
2022-12-12T12:22:50.296Z,26.00
2022-12-12T12:25:43.449Z,25.20
2022-12-12T12:28:58.601Z,28.33
2022-12-12T12:31:59.108Z,26.10
2022-12-12T12:34:56.740Z,25.47
2022-12-12T12:37:45.461Z,25.90
2022-12-12T12:40:39.608Z,27.50
2022-12-12T12:43:24.956Z,26.07
2022-12-12T12:46:02.207Z,25.80
2022-12-12T12:48:36.316Z,25.67
2022-12-12T12:51:32.683Z,25.53
2022-12-12T12:54:06.679Z,27.37
2022-12-12T12:56:46.157Z,28.83
2022-12-12T12:59:18.488Z,25.97
2022-12-12T13:01:55.226Z,26.50
2022-12-12T13:04:31.543Z,26.57
2022-12-12T13:07:03.247Z,25.87
2022-12-12T13:09:39.915Z,27.10
2022-12-12T13:12:14.628Z,25.83
2022-12-12T13:14:45.842Z,25.67
2022-12-12T13:17:19.327Z,26.87
2022-12-12T13:19:49.854Z,26.53
2022-12-12T13:22:23.818Z,26.87
2022-12-12T13:25:00.175Z,27.03
2022-12-12T13:27:35.074Z,25.50
2022-12-12T13:30:04.961Z,26.80
2022-12-12T13:32:56.246Z,26.40
2022-12-12T13:35:27.799Z,27.40
2022-12-12T13:37:56.097Z,26.47
2022-12-12T13:40:27.762Z,25.67
2022-12-12T13:43:05.502Z,26.90
2022-12-12T13:45:43.030Z,26.67
2022-12-12T13:48:47.128Z,25.57
2022-12-12T13:51:47.871Z,24.47
2022-12-12T13:54:43.188Z,25.10
2022-12-12T13:57:21.488Z,25.83
2022-12-12T14:00:23.674Z,24.87
2022-12-12T14:03:02.072Z,27.80
2022-12-12T14:05:32.884Z,27.73
2022-12-12T14:08:08.264Z,27.40
2022-12-12T14:10:37.939Z,28.60
2022-12-12T14:13:25.236Z,27.93
2022-12-12T14:16:06.757Z,27.73
2022-12-12T14:18:38.309Z,26.97
2022-12-12T14:21:08.878Z,27.87
2022-12-12T14:23:37.152Z,26.67
2022-12-12T14:26:37.900Z,26.97
2022-12-12T14:29:26.390Z,27.00
2022-12-12T14:32:06.075Z,27.07
2022-12-12T14:34:43.386Z,27.33
2022-12-12T14:37:31.282Z,27.10
2022-12-12T14:40:05.006Z,27.67
2022-12-12T14:43:19.678Z,27.63
2022-12-12T14:45:31.307Z,27.47
2022-12-12T14:48:15.935Z,27.33
2022-12-12T14:50:47.868Z,27.10
2022-12-12T14:53:18.657Z,28.37
2022-12-12T14:55:56.079Z,28.73
2022-12-12T14:58:29.542Z,28.83
2022-12-12T15:00:59.070Z,28.13
2022-12-12T15:03:32.175Z,29.27
2022-12-12T15:06:26.346Z,28.10
2022-12-12T15:08:55.109Z,30.03
2022-12-12T15:11:24.874Z,29.37
2022-12-12T15:13:54.390Z,29.23
2022-12-12T15:16:28.144Z,29.93
2022-12-12T15:18:59.198Z,31.03
2022-12-12T15:21:26.497Z,30.37
2022-12-12T15:23:54.035Z,29.83
2022-12-12T15:26:26.275Z,30.80
2022-12-12T15:28:53.481Z,29.73
2022-12-12T15:31:21.030Z,29.53
2022-12-12T15:33:49.606Z,30.00
2022-12-12T15:36:23.931Z,29.40
2022-12-12T15:39:13.836Z,29.73
2022-12-12T15:41:41.485Z,29.90
2022-12-12T15:44:15.693Z,29.73
2022-12-12T15:46:43.136Z,30.27
2022-12-12T15:49:35.629Z,30.23
2022-12-12T15:52:18.609Z,28.10
2022-12-12T15:54:48.211Z,30.03
2022-12-12T15:57:21.942Z,34.50
2022-12-12T15:59:55.222Z,66.83
2022-12-12T16:02:27.053Z,50.67
2022-12-12T16:05:06.105Z,35.77
2022-12-12T16:07:37.668Z,62.67
2022-12-12T16:10:22.422Z,55.57
2022-12-12T16:13:00.593Z,64.33
2022-12-12T16:15:34.158Z,48.87
2022-12-12T16:18:07.272Z,47.00
2022-12-12T16:20:34.594Z,58.20
2022-12-12T16:23:22.795Z,54.87
2022-12-12T16:25:50.424Z,38.10
2022-12-12T16:28:25.343Z,37.03
2022-12-12T16:30:56.666Z,36.17
2022-12-12T16:33:28.088Z,37.50
2022-12-12T16:35:55.283Z,34.63
2022-12-12T16:38:24.251Z,36.00
2022-12-12T16:40:54.368Z,35.20
2022-12-12T16:43:24.102Z,35.60
2022-12-12T16:45:53.009Z,34.67
2022-12-12T16:48:22.084Z,35.63
2022-12-12T16:50:50.866Z,34.90
2022-12-12T16:53:18.205Z,35.97
2022-12-12T16:55:49.016Z,37.20
2022-12-12T16:58:16.792Z,35.90
2022-12-12T17:00:45.207Z,35.20
2022-12-12T17:03:14.312Z,36.30
2022-12-12T17:05:42.051Z,35.27
2022-12-12T17:08:09.274Z,34.73
2022-12-12T17:10:37.097Z,34.07
2022-12-12T17:13:07.094Z,32.93
2022-12-12T17:15:35.179Z,33.40
2022-12-12T17:18:02.218Z,32.60
2022-12-12T17:20:37.589Z,32.70
2022-12-12T17:25:50.417Z,31.73
2022-12-12T17:28:20.508Z,31.43
2022-12-12T17:30:53.031Z,33.53
2022-12-12T17:33:19.930Z,35.40
2022-12-12T17:35:56.723Z,36.03
2022-12-12T17:38:23.665Z,46.33
2022-12-12T17:40:53.836Z,35.10
2022-12-12T17:43:22.765Z,32.93
2022-12-12T17:45:58.150Z,33.90
2022-12-12T17:48:28.072Z,33.93
2022-12-12T17:50:59.581Z,34.97
2022-12-12T17:53:26.762Z,34.80
2022-12-12T17:56:01.373Z,34.03
2022-12-12T17:58:37.234Z,33.53
2022-12-12T18:01:09.980Z,35.87
2022-12-12T18:03:37.277Z,35.33
2022-12-12T18:06:05.299Z,36.33
2022-12-12T18:08:32.296Z,35.63
2022-12-12T18:10:59.516Z,34.90
2022-12-12T18:13:26.816Z,34.70
2022-12-12T18:15:55.663Z,40.00
2022-12-12T18:18:23.057Z,36.40
2022-12-12T18:20:50.575Z,36.87
2022-12-12T18:23:17.474Z,38.80
2022-12-12T18:25:44.670Z,37.80
2022-12-12T18:28:12.409Z,41.97
2022-12-12T18:30:40.214Z,37.80
2022-12-12T18:33:08.998Z,40.87
2022-12-12T18:35:36.221Z,39.50
2022-12-12T18:38:03.471Z,41.17
2022-12-12T18:40:30.488Z,41.43
2022-12-12T18:42:57.932Z,41.07
2022-12-12T18:45:24.783Z,39.70
2022-12-12T18:47:51.691Z,38.10
2022-12-12T18:50:19.990Z,38.43
2022-12-12T18:52:47.852Z,38.90
2022-12-12T18:55:14.788Z,38.63
2022-12-12T18:57:41.957Z,38.33
2022-12-12T19:00:10.173Z,38.07
2022-12-12T19:02:38.832Z,35.83
2022-12-12T19:05:06.873Z,36.83
2022-12-12T19:07:35.478Z,37.50
2022-12-12T19:10:02.343Z,37.47
2022-12-12T19:12:29.353Z,35.90
2022-12-12T19:17:43.553Z,36.17
2022-12-12T19:20:12.701Z,32.17
2022-12-12T19:22:45.871Z,32.90
2022-12-12T19:25:14.806Z,32.90
2022-12-12T19:27:42.249Z,32.87
2022-12-12T19:30:10.926Z,35.13
2022-12-12T19:32:37.984Z,33.67
2022-12-12T19:35:05.600Z,32.27
2022-12-12T19:37:32.463Z,32.43
2022-12-12T19:40:00.810Z,32.93
2022-12-12T19:42:28.498Z,32.40
2022-12-12T19:44:55.733Z,32.97
2022-12-12T19:47:22.701Z,32.33
2022-12-12T19:49:49.912Z,34.50
2022-12-12T19:52:16.870Z,34.20
2022-12-12T19:54:43.785Z,33.37
2022-12-12T19:57:12.017Z,34.20
2022-12-12T19:59:39.445Z,35.30
2022-12-12T20:02:07.076Z,36.30
2022-12-12T20:04:34.052Z,36.30
2022-12-12T20:07:00.925Z,37.17
2022-12-12T20:09:29.768Z,37.57
2022-12-12T20:11:59.371Z,35.30
2022-12-12T20:14:30.602Z,36.57
2022-12-12T20:16:58.122Z,36.57
2022-12-12T20:19:29.464Z,35.30
2022-12-12T20:22:01.631Z,35.63
2022-12-12T20:24:29.734Z,34.97
2022-12-12T20:26:57.346Z,35.23
2022-12-12T20:29:24.552Z,36.43
2022-12-12T20:31:52.890Z,35.83
2022-12-12T20:34:25.259Z,35.37
2022-12-12T20:36:55.034Z,34.40
2022-12-12T20:39:22.841Z,35.50
2022-12-12T20:41:50.683Z,34.63
2022-12-12T20:44:18.171Z,36.63
2022-12-12T20:46:46.964Z,34.03
2022-12-12T20:49:18.062Z,34.10
2022-12-12T20:52:00.698Z,35.20
2022-12-12T20:54:29.091Z,34.47
2022-12-12T20:56:57.440Z,32.87
2022-12-12T20:59:25.311Z,33.30
2022-12-12T21:01:52.822Z,32.10
2022-12-12T21:04:21.759Z,34.83
2022-12-12T21:06:49.641Z,33.57
2022-12-12T21:09:23.713Z,34.07
2022-12-12T21:11:53.061Z,33.73
2022-12-12T21:14:20.210Z,33.77
2022-12-12T21:16:47.401Z,35.23
2022-12-12T21:19:14.954Z,35.27
2022-12-12T21:21:43.783Z,33.73
2022-12-12T21:24:12.110Z,32.93
2022-12-12T21:26:39.359Z,33.53
2022-12-12T21:29:06.877Z,33.13
2022-12-12T21:31:36.556Z,33.60
2022-12-12T21:34:04.986Z,33.33
2022-12-12T21:36:33.261Z,32.63
2022-12-12T21:39:03.023Z,32.43
2022-12-12T21:41:30.449Z,32.67
2022-12-12T21:43:59.612Z,33.97
2022-12-12T21:46:28.544Z,31.87
2022-12-12T21:49:15.351Z,32.60
2022-12-12T21:51:43.255Z,31.60
2022-12-12T21:54:13.995Z,31.47
2022-12-12T21:56:41.690Z,31.83
2022-12-12T21:59:10.206Z,30.13
2022-12-12T22:01:37.439Z,30.53
2022-12-12T22:04:04.948Z,27.97
2022-12-12T22:06:33.560Z,23.57
2022-12-12T22:09:03.024Z,25.97
2022-12-12T22:11:40.357Z,24.07
2022-12-12T22:14:17.510Z,24.43
2022-12-12T22:16:44.752Z,24.33
2022-12-12T22:19:14.517Z,25.13
2022-12-12T22:21:44.209Z,27.90
2022-12-12T22:24:11.572Z,27.73
2022-12-12T22:26:42.017Z,26.63
2022-12-12T22:29:11.767Z,23.97
2022-12-12T22:31:40.586Z,23.50
2022-12-12T22:34:12.306Z,22.67
2022-12-12T22:36:40.358Z,24.50
2022-12-12T22:39:12.614Z,23.03
2022-12-12T22:41:40.881Z,24.40
2022-12-12T22:44:08.283Z,24.33
2022-12-12T22:46:39.229Z,24.43
2022-12-12T22:49:12.030Z,24.77
2022-12-12T22:51:39.036Z,23.80
2022-12-12T22:54:06.737Z,23.63
2022-12-12T22:56:35.719Z,27.63
2022-12-12T22:59:05.756Z,31.73
2022-12-12T23:01:32.957Z,23.53
2022-12-12T23:04:00.596Z,23.50
2022-12-12T23:06:30.511Z,23.43
2022-12-12T23:09:01.060Z,24.90
2022-12-12T23:11:29.834Z,23.93
2022-12-12T23:13:59.815Z,23.30
2022-12-12T23:16:30.624Z,22.70
2022-12-12T23:18:58.561Z,23.77
2022-12-12T23:21:26.492Z,21.33
2022-12-12T23:23:55.525Z,22.07
2022-12-12T23:26:24.114Z,22.60
2022-12-12T23:28:51.228Z,21.13
2022-12-12T23:31:22.353Z,21.60
2022-12-12T23:33:53.688Z,22.77
2022-12-12T23:36:21.335Z,21.87
2022-12-12T23:38:48.195Z,21.47
2022-12-12T23:41:16.553Z,20.47
2022-12-12T23:43:43.596Z,22.50
2022-12-12T23:46:29.037Z,21.73
2022-12-12T23:48:59.514Z,21.27
2022-12-12T23:51:28.751Z,22.63
2022-12-12T23:53:56.957Z,21.93
2022-12-12T23:56:24.376Z,21.83
2022-12-12T23:58:52.199Z,21.83
